sensor_id;sensor_type;location;lat;lon;timestamp;pressure;altitude;pressure_sealevel;temperature;humidity
11692;BME280;33659;42.672;23.354;2023-03-12T00:00:43;93486.31;;;4.69;56.00
11692;BME280;33659;42.672;23.354;2023-03-12T00:03:10;93476.56;;;4.74;55.57
11692;BME280;33659;42.672;23.354;2023-03-12T00:05:38;93499.09;;;4.74;55.56
11692;BME280;33659;42.672;23.354;2023-03-12T00:08:06;93504.75;;;4.67;55.91
11692;BME280;33659;42.672;23.354;2023-03-12T00:10:33;93496.09;;;4.63;55.75
11692;BME280;33659;42.672;23.354;2023-03-12T00:13:00;93511.59;;;4.63;55.35
11692;BME280;33659;42.672;23.354;2023-03-12T00:15:27;93502.69;;;4.52;55.74
11692;BME280;33659;42.672;23.354;2023-03-12T00:17:54;93497.25;;;4.45;55.84
11692;BME280;33659;42.672;23.354;2023-03-12T00:20:20;93516.09;;;4.37;56.72
11692;BME280;33659;42.672;23.354;2023-03-12T00:22:48;93562.63;;;4.37;56.67
11692;BME280;33659;42.672;23.354;2023-03-12T00:25:16;93526.59;;;4.31;56.99
11692;BME280;33659;42.672;23.354;2023-03-12T00:27:43;93520.50;;;4.36;56.26
11692;BME280;33659;42.672;23.354;2023-03-12T00:30:10;93521.41;;;4.40;56.54
11692;BME280;33659;42.672;23.354;2023-03-12T00:32:37;93537.09;;;4.35;57.15
11692;BME280;33659;42.672;23.354;2023-03-12T00:35:05;93526.28;;;4.42;56.51
11692;BME280;33659;42.672;23.354;2023-03-12T00:37:32;93552.13;;;4.42;56.33
11692;BME280;33659;42.672;23.354;2023-03-12T00:39:59;93545.28;;;4.46;55.70
11692;BME280;33659;42.672;23.354;2023-03-12T00:42:27;93552.56;;;4.44;55.62
11692;BME280;33659;42.672;23.354;2023-03-12T00:44:54;93519.59;;;4.41;55.86
11692;BME280;33659;42.672;23.354;2023-03-12T00:47:21;93521.84;;;4.42;55.41
11692;BME280;33659;42.672;23.354;2023-03-12T00:49:47;93541.78;;;4.42;55.55
11692;BME280;33659;42.672;23.354;2023-03-12T00:52:14;93534.34;;;4.40;55.06
11692;BME280;33659;42.672;23.354;2023-03-12T00:54:41;93512.91;;;4.40;55.66
11692;BME280;33659;42.672;23.354;2023-03-12T00:57:07;93531.03;;;4.22;56.00
11692;BME280;33659;42.672;23.354;2023-03-12T00:59:35;93521.31;;;4.19;56.92
11692;BME280;33659;42.672;23.354;2023-03-12T01:02:04;93541.66;;;4.12;56.95
11692;BME280;33659;42.672;23.354;2023-03-12T01:04:31;93535.75;;;4.12;57.11
11692;BME280;33659;42.672;23.354;2023-03-12T01:06:58;93515.88;;;4.03;56.90
11692;BME280;33659;42.672;23.354;2023-03-12T01:09:24;93535.03;;;3.94;57.23
11692;BME280;33659;42.672;23.354;2023-03-12T01:11:51;93514.66;;;3.84;57.95
11692;BME280;33659;42.672;23.354;2023-03-12T01:14:18;93554.00;;;3.89;58.06
11692;BME280;33659;42.672;23.354;2023-03-12T01:16:46;93553.84;;;3.86;57.65
11692;BME280;33659;42.672;23.354;2023-03-12T01:19:12;93546.41;;;3.84;58.05
11692;BME280;33659;42.672;23.354;2023-03-12T01:21:39;93567.38;;;3.83;58.35
11692;BME280;33659;42.672;23.354;2023-03-12T01:24:06;93542.16;;;3.71;58.54
11692;BME280;33659;42.672;23.354;2023-03-12T01:26:33;93580.28;;;3.65;58.96
11692;BME280;33659;42.672;23.354;2023-03-12T01:28:59;93527.56;;;3.66;58.63
11692;BME280;33659;42.672;23.354;2023-03-12T01:31:26;93544.44;;;3.64;57.92
11692;BME280;33659;42.672;23.354;2023-03-12T01:33:54;93546.88;;;3.69;58.11
11692;BME280;33659;42.672;23.354;2023-03-12T01:36:22;93548.53;;;3.73;58.36
11692;BME280;33659;42.672;23.354;2023-03-12T01:38:50;93538.81;;;3.79;58.78
11692;BME280;33659;42.672;23.354;2023-03-12T01:41:17;93581.81;;;3.75;57.90
11692;BME280;33659;42.672;23.354;2023-03-12T01:43:44;93599.56;;;3.68;58.62
11692;BME280;33659;42.672;23.354;2023-03-12T01:46:26;93563.88;;;3.61;57.90
11692;BME280;33659;42.672;23.354;2023-03-12T01:48:57;93549.59;;;3.55;58.31
11692;BME280;33659;42.672;23.354;2023-03-12T01:51:26;93557.50;;;3.59;58.87
11692;BME280;33659;42.672;23.354;2023-03-12T01:53:57;93523.19;;;3.58;58.59
11692;BME280;33659;42.672;23.354;2023-03-12T01:56:27;93547.47;;;3.66;58.96
11692;BME280;33659;42.672;23.354;2023-03-12T01:58:57;93558.28;;;3.68;59.00
11692;BME280;33659;42.672;23.354;2023-03-12T02:01:26;93561.13;;;3.66;57.74
11692;BME280;33659;42.672;23.354;2023-03-12T02:03:57;93567.69;;;3.64;57.69
11692;BME280;33659;42.672;23.354;2023-03-12T02:06:29;93566.16;;;3.63;58.63
11692;BME280;33659;42.672;23.354;2023-03-12T02:09:00;93560.09;;;3.67;58.03
11692;BME280;33659;42.672;23.354;2023-03-12T02:11:28;93540.78;;;3.73;58.36
11692;BME280;33659;42.672;23.354;2023-03-12T02:13:54;93545.94;;;3.73;57.99
11692;BME280;33659;42.672;23.354;2023-03-12T02:16:21;93554.00;;;3.63;58.53
11692;BME280;33659;42.672;23.354;2023-03-12T02:18:49;93564.81;;;3.83;58.19
11692;BME280;33659;42.672;23.354;2023-03-12T02:21:21;93548.53;;;3.91;57.96
11692;BME280;33659;42.672;23.354;2023-03-12T02:23:55;93551.56;;;3.93;57.31
11692;BME280;33659;42.672;23.354;2023-03-12T02:26:27;93573.28;;;3.92;57.29
11692;BME280;33659;42.672;23.354;2023-03-12T02:28:55;93578.47;;;3.92;57.41
11692;BME280;33659;42.672;23.354;2023-03-12T02:31:25;93534.13;;;3.90;57.02
11692;BME280;33659;42.672;23.354;2023-03-12T02:33:54;93570.41;;;3.76;57.17
11692;BME280;33659;42.672;23.354;2023-03-12T02:36:20;93566.00;;;3.59;57.65
11692;BME280;33659;42.672;23.354;2023-03-12T02:38:48;93554.91;;;3.59;57.98
11692;BME280;33659;42.672;23.354;2023-03-12T02:41:19;93547.03;;;3.55;58.40
11692;BME280;33659;42.672;23.354;2023-03-12T02:43:52;93555.97;;;3.49;58.43
11692;BME280;33659;42.672;23.354;2023-03-12T02:46:23;93583.44;;;3.53;58.27
11692;BME280;33659;42.672;23.354;2023-03-12T02:48:50;93554.75;;;3.46;58.53
11692;BME280;33659;42.672;23.354;2023-03-12T02:51:17;93567.66;;;3.46;58.83
11692;BME280;33659;42.672;23.354;2023-03-12T02:53:44;93549.13;;;3.36;59.30
11692;BME280;33659;42.672;23.354;2023-03-12T02:56:11;93585.38;;;3.31;59.51
11692;BME280;33659;42.672;23.354;2023-03-12T02:58:37;93562.63;;;3.33;59.90
11692;BME280;33659;42.672;23.354;2023-03-12T03:01:05;93541.50;;;3.13;60.46
11692;BME280;33659;42.672;23.354;2023-03-12T03:03:32;93563.78;;;3.09;60.60
11692;BME280;33659;42.672;23.354;2023-03-12T03:05:59;93565.59;;;3.09;60.34
11692;BME280;33659;42.672;23.354;2023-03-12T03:08:25;93545.13;;;3.04;61.86
11692;BME280;33659;42.672;23.354;2023-03-12T03:10:52;93528.09;;;3.03;61.69
11692;BME280;33659;42.672;23.354;2023-03-12T03:13:19;93545.69;;;3.01;61.61
11692;BME280;33659;42.672;23.354;2023-03-12T03:15:46;93534.69;;;3.17;60.71
11692;BME280;33659;42.672;23.354;2023-03-12T03:18:14;93559.72;;;3.17;60.96
11692;BME280;33659;42.672;23.354;2023-03-12T03:20:41;93552.91;;;3.30;60.29
11692;BME280;33659;42.672;23.354;2023-03-12T03:23:09;93556.56;;;3.29;60.23
11692;BME280;33659;42.672;23.354;2023-03-12T03:25:35;93578.28;;;3.36;59.14
11692;BME280;33659;42.672;23.354;2023-03-12T03:28:02;93568.84;;;3.32;58.94
11692;BME280;33659;42.672;23.354;2023-03-12T03:30:29;93560.34;;;3.22;59.66
11692;BME280;33659;42.672;23.354;2023-03-12T03:32:56;93546.81;;;3.17;59.26
11692;BME280;33659;42.672;23.354;2023-03-12T03:35:24;93568.03;;;3.05;60.14
11692;BME280;33659;42.672;23.354;2023-03-12T03:37:51;93576.22;;;3.07;60.06
11692;BME280;33659;42.672;23.354;2023-03-12T03:40:18;93552.53;;;3.05;59.11
11692;BME280;33659;42.672;23.354;2023-03-12T03:42:45;93580.91;;;3.05;59.52
11692;BME280;33659;42.672;23.354;2023-03-12T03:45:11;93597.72;;;3.03;58.85
11692;BME280;33659;42.672;23.354;2023-03-12T03:47:38;93604.69;;;3.02;58.26
11692;BME280;33659;42.672;23.354;2023-03-12T03:50:05;93587.56;;;2.97;59.47
11692;BME280;33659;42.672;23.354;2023-03-12T03:52:33;93584.50;;;2.95;59.75
11692;BME280;33659;42.672;23.354;2023-03-12T03:55:00;93572.09;;;2.97;58.26
11692;BME280;33659;42.672;23.354;2023-03-12T03:57:27;93570.50;;;2.79;59.09
11692;BME280;33659;42.672;23.354;2023-03-12T03:59:54;93589.75;;;2.73;60.21
11692;BME280;33659;42.672;23.354;2023-03-12T04:02:23;93579.72;;;2.71;59.35
11692;BME280;33659;42.672;23.354;2023-03-12T04:04:50;93587.47;;;2.71;58.43
11692;BME280;33659;42.672;23.354;2023-03-12T04:07:18;93594.72;;;2.69;59.24
11692;BME280;33659;42.672;23.354;2023-03-12T04:09:47;93618.81;;;2.65;59.38
11692;BME280;33659;42.672;23.354;2023-03-12T04:12:13;93607.75;;;2.64;59.16
11692;BME280;33659;42.672;23.354;2023-03-12T04:14:41;93619.28;;;2.67;58.95
11692;BME280;33659;42.672;23.354;2023-03-12T04:17:08;93637.53;;;2.79;58.18
11692;BME280;33659;42.672;23.354;2023-03-12T04:19:34;93630.09;;;2.78;57.48
11692;BME280;33659;42.672;23.354;2023-03-12T04:22:01;93646.91;;;2.75;56.36
11692;BME280;33659;42.672;23.354;2023-03-12T04:24:28;93622.50;;;2.72;55.29
11692;BME280;33659;42.672;23.354;2023-03-12T04:26:56;93651.56;;;2.64;56.47
11692;BME280;33659;42.672;23.354;2023-03-12T04:29:23;93652.00;;;2.66;56.28
11692;BME280;33659;42.672;23.354;2023-03-12T04:31:49;93674.81;;;2.73;55.84
11692;BME280;33659;42.672;23.354;2023-03-12T04:34:16;93649.09;;;2.59;55.09
11692;BME280;33659;42.672;23.354;2023-03-12T04:36:43;93644.50;;;2.56;56.02
11692;BME280;33659;42.672;23.354;2023-03-12T04:39:10;93662.84;;;2.55;55.79
11692;BME280;33659;42.672;23.354;2023-03-12T04:41:37;93675.16;;;2.58;55.70
11692;BME280;33659;42.672;23.354;2023-03-12T04:44:05;93695.13;;;2.52;56.18
11692;BME280;33659;42.672;23.354;2023-03-12T04:46:32;93694.66;;;2.50;56.11
11692;BME280;33659;42.672;23.354;2023-03-12T04:48:58;93686.91;;;2.50;56.29
11692;BME280;33659;42.672;23.354;2023-03-12T04:51:27;93659.28;;;2.42;55.89
11692;BME280;33659;42.672;23.354;2023-03-12T04:53:54;93702.72;;;2.35;56.18
11692;BME280;33659;42.672;23.354;2023-03-12T04:56:21;93684.47;;;2.45;56.16
11692;BME280;33659;42.672;23.354;2023-03-12T04:58:47;93682.00;;;2.40;56.12
11692;BME280;33659;42.672;23.354;2023-03-12T05:01:21;93693.78;;;2.55;56.56
11692;BME280;33659;42.672;23.354;2023-03-12T05:03:49;93712.75;;;2.59;56.00
11692;BME280;33659;42.672;23.354;2023-03-12T05:06:16;93704.03;;;2.68;55.98
11692;BME280;33659;42.672;23.354;2023-03-12T05:08:43;93721.19;;;2.73;56.11
11692;BME280;33659;42.672;23.354;2023-03-12T05:11:09;93728.47;;;2.71;55.72
11692;BME280;33659;42.672;23.354;2023-03-12T05:13:36;93713.50;;;2.82;56.07
11692;BME280;33659;42.672;23.354;2023-03-12T05:16:03;93721.34;;;2.77;55.82
11692;BME280;33659;42.672;23.354;2023-03-12T05:18:31;93730.44;;;2.74;55.62
11692;BME280;33659;42.672;23.354;2023-03-12T05:20:59;93704.22;;;2.72;55.93
11692;BME280;33659;42.672;23.354;2023-03-12T05:23:27;93719.56;;;2.77;56.47
11692;BME280;33659;42.672;23.354;2023-03-12T05:25:54;93734.09;;;2.73;56.28
11692;BME280;33659;42.672;23.354;2023-03-12T05:28:21;93726.41;;;2.82;55.37
11692;BME280;33659;42.672;23.354;2023-03-12T05:30:52;93705.84;;;2.68;54.54
11692;BME280;33659;42.672;23.354;2023-03-12T05:33:19;93740.47;;;2.98;54.41
11692;BME280;33659;42.672;23.354;2023-03-12T05:35:47;93756.50;;;2.95;53.52
11692;BME280;33659;42.672;23.354;2023-03-12T05:38:14;93754.84;;;2.90;53.85
11692;BME280;33659;42.672;23.354;2023-03-12T05:40:41;93750.91;;;2.93;54.02
11692;BME280;33659;42.672;23.354;2023-03-12T05:43:07;93733.44;;;2.90;53.10
11692;BME280;33659;42.672;23.354;2023-03-12T05:45:34;93751.25;;;3.00;53.61
11692;BME280;33659;42.672;23.354;2023-03-12T05:48:01;93753.41;;;3.07;53.51
11692;BME280;33659;42.672;23.354;2023-03-12T05:50:27;93768.75;;;3.12;53.69
11692;BME280;33659;42.672;23.354;2023-03-12T05:52:55;93768.34;;;3.18;54.61
11692;BME280;33659;42.672;23.354;2023-03-12T05:55:22;93765.66;;;3.23;54.02
11692;BME280;33659;42.672;23.354;2023-03-12T05:57:49;93783.19;;;3.35;54.63
11692;BME280;33659;42.672;23.354;2023-03-12T06:00:17;93787.91;;;3.42;53.94
11692;BME280;33659;42.672;23.354;2023-03-12T06:02:44;93769.91;;;3.59;53.38
11692;BME280;33659;42.672;23.354;2023-03-12T06:05:11;93790.34;;;3.47;51.95
11692;BME280;33659;42.672;23.354;2023-03-12T06:07:37;93790.53;;;3.50;52.58
11692;BME280;33659;42.672;23.354;2023-03-12T06:10:07;93773.88;;;3.65;52.42
11692;BME280;33659;42.672;23.354;2023-03-12T06:12:34;93768.28;;;3.63;51.83
11692;BME280;33659;42.672;23.354;2023-03-12T06:15:01;93795.09;;;3.53;52.70
11692;BME280;33659;42.672;23.354;2023-03-12T06:17:28;93795.50;;;3.47;52.01
11692;BME280;33659;42.672;23.354;2023-03-12T06:19:56;93807.63;;;3.38;50.89
11692;BME280;33659;42.672;23.354;2023-03-12T06:22:23;93792.97;;;3.24;51.26
11692;BME280;33659;42.672;23.354;2023-03-12T06:24:50;93789.41;;;3.12;51.99
11692;BME280;33659;42.672;23.354;2023-03-12T06:27:18;93803.69;;;3.18;53.11
11692;BME280;33659;42.672;23.354;2023-03-12T06:29:44;93785.88;;;3.30;52.65
11692;BME280;33659;42.672;23.354;2023-03-12T06:32:11;93792.97;;;3.24;52.71
11692;BME280;33659;42.672;23.354;2023-03-12T06:34:38;93788.56;;;3.25;52.23
11692;BME280;33659;42.672;23.354;2023-03-12T06:37:05;93777.31;;;3.21;52.37
11692;BME280;33659;42.672;23.354;2023-03-12T06:39:32;93810.38;;;3.19;53.26
11692;BME280;33659;42.672;23.354;2023-03-12T06:41:58;93800.25;;;3.22;53.74
11692;BME280;33659;42.672;23.354;2023-03-12T06:44:26;93808.09;;;3.17;53.68
11692;BME280;33659;42.672;23.354;2023-03-12T06:46:53;93824.03;;;3.19;54.04
11692;BME280;33659;42.672;23.354;2023-03-12T06:49:20;93820.06;;;3.13;54.37
11692;BME280;33659;42.672;23.354;2023-03-12T06:51:47;93802.44;;;3.15;54.06
11692;BME280;33659;42.672;23.354;2023-03-12T06:54:14;93829.91;;;3.11;54.22
11692;BME280;33659;42.672;23.354;2023-03-12T06:56:40;93811.56;;;3.13;53.89
11692;BME280;33659;42.672;23.354;2023-03-12T06:59:07;93868.19;;;3.18;53.29
11692;BME280;33659;42.672;23.354;2023-03-12T07:01:35;93870.81;;;3.26;52.95
11692;BME280;33659;42.672;23.354;2023-03-12T07:04:02;93845.69;;;3.32;52.18
11692;BME280;33659;42.672;23.354;2023-03-12T07:06:28;93834.41;;;3.28;51.33
11692;BME280;33659;42.672;23.354;2023-03-12T07:08:55;93801.59;;;3.20;51.26
11692;BME280;33659;42.672;23.354;2023-03-12T07:11:22;93821.31;;;3.16;50.97
11692;BME280;33659;42.672;23.354;2023-03-12T07:13:48;93833.53;;;3.10;51.21
11692;BME280;33659;42.672;23.354;2023-03-12T07:16:15;93848.00;;;3.20;51.57
11692;BME280;33659;42.672;23.354;2023-03-12T07:18:43;93821.88;;;3.13;50.39
11692;BME280;33659;42.672;23.354;2023-03-12T07:21:10;93851.06;;;3.22;50.94
11692;BME280;33659;42.672;23.354;2023-03-12T07:23:37;93860.41;;;3.32;49.97
11692;BME280;33659;42.672;23.354;2023-03-12T07:26:04;93860.03;;;3.24;50.79
11692;BME280;33659;42.672;23.354;2023-03-12T07:28:31;93873.25;;;3.23;51.27
11692;BME280;33659;42.672;23.354;2023-03-12T07:31:01;93875.41;;;3.30;50.24
11692;BME280;33659;42.672;23.354;2023-03-12T07:33:28;93879.69;;;3.34;50.78
11692;BME280;33659;42.672;23.354;2023-03-12T07:35:57;93871.25;;;3.42;51.07
11692;BME280;33659;42.672;23.354;2023-03-12T07:38:24;93891.34;;;3.54;50.66
11692;BME280;33659;42.672;23.354;2023-03-12T07:40:51;93873.06;;;3.64;50.40
11692;BME280;33659;42.672;23.354;2023-03-12T07:43:18;93899.66;;;3.73;50.34
11692;BME280;33659;42.672;23.354;2023-03-12T07:45:45;93886.19;;;3.76;48.69
11692;BME280;33659;42.672;23.354;2023-03-12T07:48:12;93862.16;;;3.67;48.45
11692;BME280;33659;42.672;23.354;2023-03-12T07:50:38;93907.66;;;3.63;49.07
11692;BME280;33659;42.672;23.354;2023-03-12T07:53:07;93905.38;;;3.62;48.67
11692;BME280;33659;42.672;23.354;2023-03-12T07:55:33;93878.06;;;3.61;48.23
11692;BME280;33659;42.672;23.354;2023-03-12T07:58:00;93884.19;;;3.73;48.21
11692;BME280;33659;42.672;23.354;2023-03-12T08:00:28;93886.28;;;3.71;49.77
11692;BME280;33659;42.672;23.354;2023-03-12T08:02:55;93890.88;;;3.74;49.22
11692;BME280;33659;42.672;23.354;2023-03-12T08:05:22;93921.72;;;3.79;47.75
11692;BME280;33659;42.672;23.354;2023-03-12T08:07:49;93905.97;;;3.81;49.30
11692;BME280;33659;42.672;23.354;2023-03-12T08:10:18;93907.41;;;3.96;48.50
11692;BME280;33659;42.672;23.354;2023-03-12T08:12:45;93897.28;;;4.08;47.89
11692;BME280;33659;42.672;23.354;2023-03-12T08:15:12;93935.72;;;4.10;47.68
11692;BME280;33659;42.672;23.354;2023-03-12T08:17:39;93946.25;;;3.91;46.48
11692;BME280;33659;42.672;23.354;2023-03-12T08:20:07;93942.19;;;3.98;46.01
11692;BME280;33659;42.672;23.354;2023-03-12T08:22:34;93939.47;;;3.95;47.33
11692;BME280;33659;42.672;23.354;2023-03-12T08:25:01;93945.09;;;3.97;47.36
11692;BME280;33659;42.672;23.354;2023-03-12T08:27:29;93984.47;;;4.02;47.48
11692;BME280;33659;42.672;23.354;2023-03-12T08:29:56;93967.44;;;4.01;47.78
11692;BME280;33659;42.672;23.354;2023-03-12T08:32:23;93947.00;;;4.14;47.44
11692;BME280;33659;42.672;23.354;2023-03-12T08:34:50;93940.03;;;4.14;46.79
11692;BME280;33659;42.672;23.354;2023-03-12T08:37:16;93953.28;;;4.21;46.70
11692;BME280;33659;42.672;23.354;2023-03-12T08:39:43;93959.13;;;4.35;47.53
11692;BME280;33659;42.672;23.354;2023-03-12T08:42:10;93989.03;;;4.28;45.92
11692;BME280;33659;42.672;23.354;2023-03-12T08:44:38;93955.22;;;4.16;46.55
11692;BME280;33659;42.672;23.354;2023-03-12T08:47:04;93961.34;;;4.20;46.41
11692;BME280;33659;42.672;23.354;2023-03-12T08:49:31;94001.50;;;4.26;45.91
11692;BME280;33659;42.672;23.354;2023-03-12T08:51:57;93992.91;;;4.17;46.82
11692;BME280;33659;42.672;23.354;2023-03-12T08:54:24;93958.25;;;4.18;46.18
11692;BME280;33659;42.672;23.354;2023-03-12T08:56:51;93974.47;;;4.10;46.79
11692;BME280;33659;42.672;23.354;2023-03-12T08:59:18;93973.59;;;4.14;46.76
11692;BME280;33659;42.672;23.354;2023-03-12T09:01:48;93968.03;;;4.21;46.66
11692;BME280;33659;42.672;23.354;2023-03-12T09:04:14;93966.88;;;4.35;47.12
11692;BME280;33659;42.672;23.354;2023-03-12T09:06:41;93971.78;;;4.46;47.21
11692;BME280;33659;42.672;23.354;2023-03-12T09:09:08;93967.25;;;4.51;46.09
11692;BME280;33659;42.672;23.354;2023-03-12T09:11:36;93947.59;;;4.50;46.09
11692;BME280;33659;42.672;23.354;2023-03-12T09:14:04;93998.28;;;4.51;46.87
11692;BME280;33659;42.672;23.354;2023-03-12T09:16:30;93999.03;;;4.52;46.71
11692;BME280;33659;42.672;23.354;2023-03-12T09:18:59;93985.38;;;4.60;47.05
11692;BME280;33659;42.672;23.354;2023-03-12T09:21:26;93969.75;;;4.74;47.26
11692;BME280;33659;42.672;23.354;2023-03-12T09:23:52;93944.22;;;4.81;46.13
11692;BME280;33659;42.672;23.354;2023-03-12T09:26:19;93988.50;;;4.79;47.05
11692;BME280;33659;42.672;23.354;2023-03-12T09:28:46;93956.13;;;4.91;46.84
11692;BME280;33659;42.672;23.354;2023-03-12T09:31:12;93964.50;;;4.96;46.32
11692;BME280;33659;42.672;23.354;2023-03-12T09:33:39;93975.50;;;5.10;46.21
11692;BME280;33659;42.672;23.354;2023-03-12T09:36:07;93965.16;;;5.19;45.96
11692;BME280;33659;42.672;23.354;2023-03-12T09:38:34;93975.63;;;5.14;45.36
11692;BME280;33659;42.672;23.354;2023-03-12T09:41:03;93949.16;;;5.17;45.41
11692;BME280;33659;42.672;23.354;2023-03-12T09:43:34;93972.03;;;5.50;45.49
11692;BME280;33659;42.672;23.354;2023-03-12T09:46:03;93973.09;;;5.57;46.14
11692;BME280;33659;42.672;23.354;2023-03-12T09:48:34;93954.06;;;5.62;43.37
11692;BME280;33659;42.672;23.354;2023-03-12T09:51:05;93953.91;;;5.58;44.59
11692;BME280;33659;42.672;23.354;2023-03-12T09:53:37;93960.63;;;5.68;43.95
11692;BME280;33659;42.672;23.354;2023-03-12T09:56:11;93964.09;;;5.72;44.08
11692;BME280;33659;42.672;23.354;2023-03-12T09:58:39;93980.41;;;5.81;44.11
11692;BME280;33659;42.672;23.354;2023-03-12T10:01:18;93958.16;;;5.97;43.84
11692;BME280;33659;42.672;23.354;2023-03-12T10:07:05;93943.97;;;6.04;42.57
11692;BME280;33659;42.672;23.354;2023-03-12T10:09:49;93947.78;;;6.06;42.64
11692;BME280;33659;42.672;23.354;2023-03-12T10:12:27;93961.81;;;6.14;42.72
11692;BME280;33659;42.672;23.354;2023-03-12T10:15:06;93957.22;;;6.19;42.48
11692;BME280;33659;42.672;23.354;2023-03-12T10:17:47;93954.44;;;6.33;42.06
11692;BME280;33659;42.672;23.354;2023-03-12T10:20:32;93950.81;;;6.64;41.91
11692;BME280;33659;42.672;23.354;2023-03-12T10:23:07;93920.94;;;6.87;40.56
11692;BME280;33659;42.672;23.354;2023-03-12T10:25:41;93939.59;;;7.10;40.27
11692;BME280;33659;42.672;23.354;2023-03-12T10:28:14;93940.16;;;7.16;39.83
11692;BME280;33659;42.672;23.354;2023-03-12T10:30:47;93951.94;;;7.13;39.75
11692;BME280;33659;42.672;23.354;2023-03-12T10:33:17;93946.91;;;7.08;39.38
11692;BME280;33659;42.672;23.354;2023-03-12T10:35:45;93948.41;;;6.88;39.27
11692;BME280;33659;42.672;23.354;2023-03-12T10:38:16;93941.69;;;6.87;39.82
11692;BME280;33659;42.672;23.354;2023-03-12T10:40:46;93945.63;;;6.93;40.71
11692;BME280;33659;42.672;23.354;2023-03-12T10:43:13;93942.69;;;7.03;40.70
11692;BME280;33659;42.672;23.354;2023-03-12T10:45:44;93947.31;;;7.19;40.54
11692;BME280;33659;42.672;23.354;2023-03-12T10:48:18;93947.56;;;7.47;39.97
11692;BME280;33659;42.672;23.354;2023-03-12T10:50:59;93948.03;;;7.49;39.54
11692;BME280;33659;42.672;23.354;2023-03-12T10:53:27;93949.03;;;7.56;39.05
11692;BME280;33659;42.672;23.354;2023-03-12T10:56:03;93949.56;;;7.50;39.01
11692;BME280;33659;42.672;23.354;2023-03-12T10:58:33;93960.31;;;7.60;38.42
11692;BME280;33659;42.672;23.354;2023-03-12T11:01:02;93958.53;;;7.73;38.12
11692;BME280;33659;42.672;23.354;2023-03-12T11:03:29;93950.16;;;7.88;38.73
11692;BME280;33659;42.672;23.354;2023-03-12T11:05:58;93964.56;;;7.98;38.51
11692;BME280;33659;42.672;23.354;2023-03-12T11:08:27;93928.22;;;8.10;37.85
11692;BME280;33659;42.672;23.354;2023-03-12T11:10:56;93953.09;;;8.32;36.51
11692;BME280;33659;42.672;23.354;2023-03-12T11:13:27;93944.16;;;8.54;37.09
11692;BME280;33659;42.672;23.354;2023-03-12T11:15:55;93929.50;;;8.74;37.33
11692;BME280;33659;42.672;23.354;2023-03-12T11:18:26;93946.44;;;8.68;36.42
11692;BME280;33659;42.672;23.354;2023-03-12T11:20:54;93933.97;;;8.61;35.73
11692;BME280;33659;42.672;23.354;2023-03-12T11:23:25;93937.44;;;8.78;36.06
11692;BME280;33659;42.672;23.354;2023-03-12T11:25:54;93924.31;;;8.99;36.56
11692;BME280;33659;42.672;23.354;2023-03-12T11:28:27;93950.22;;;9.19;36.01
11692;BME280;33659;42.672;23.354;2023-03-12T11:30:56;93927.09;;;9.18;35.51
11692;BME280;33659;42.672;23.354;2023-03-12T11:33:24;93940.63;;;9.48;34.98
11692;BME280;33659;42.672;23.354;2023-03-12T11:36:00;93925.91;;;9.68;33.95
11692;BME280;33659;42.672;23.354;2023-03-12T11:38:33;93930.94;;;9.48;34.35
11692;BME280;33659;42.672;23.354;2023-03-12T11:41:12;93937.72;;;9.65;34.88
11692;BME280;33659;42.672;23.354;2023-03-12T11:43:56;93930.84;;;10.01;34.17
11692;BME280;33659;42.672;23.354;2023-03-12T11:46:35;93924.03;;;10.24;33.17
11692;BME280;33659;42.672;23.354;2023-03-12T11:49:16;93928.09;;;10.53;32.86
11692;BME280;33659;42.672;23.354;2023-03-12T11:51:53;93910.03;;;10.80;32.60
11692;BME280;33659;42.672;23.354;2023-03-12T11:54:39;93913.19;;;10.38;33.76
11692;BME280;33659;42.672;23.354;2023-03-12T11:57:17;93905.09;;;10.59;33.30
11692;BME280;33659;42.672;23.354;2023-03-12T11:59:54;93922.97;;;10.57;32.90
11692;BME280;33659;42.672;23.354;2023-03-12T12:02:41;93947.34;;;10.49;33.13
11692;BME280;33659;42.672;23.354;2023-03-12T12:05:33;93922.63;;;10.58;33.17
11692;BME280;33659;42.672;23.354;2023-03-12T12:08:21;93935.75;;;10.62;32.89
11692;BME280;33659;42.672;23.354;2023-03-12T12:10:56;93924.72;;;10.53;33.09
11692;BME280;33659;42.672;23.354;2023-03-12T12:13:31;93927.00;;;10.39;33.35
11692;BME280;33659;42.672;23.354;2023-03-12T12:16:12;93933.53;;;10.04;33.57
11692;BME280;33659;42.672;23.354;2023-03-12T12:18:54;93922.44;;;9.92;34.04
11692;BME280;33659;42.672;23.354;2023-03-12T12:21:41;93930.69;;;9.94;33.96
11692;BME280;33659;42.672;23.354;2023-03-12T12:24:18;93913.81;;;9.91;33.92
11692;BME280;33659;42.672;23.354;2023-03-12T12:26:54;93933.53;;;9.89;34.27
11692;BME280;33659;42.672;23.354;2023-03-12T12:29:31;93929.63;;;9.83;34.94
11692;BME280;33659;42.672;23.354;2023-03-12T12:32:04;93929.91;;;9.65;34.90
11692;BME280;33659;42.672;23.354;2023-03-12T12:34:49;93944.59;;;9.58;36.85
11692;BME280;33659;42.672;23.354;2023-03-12T12:37:28;93927.69;;;9.80;34.73
11692;BME280;33659;42.672;23.354;2023-03-12T12:40:01;93930.06;;;9.85;35.32
11692;BME280;33659;42.672;23.354;2023-03-12T12:42:35;93930.44;;;10.27;34.37
11692;BME280;33659;42.672;23.354;2023-03-12T12:45:05;93934.06;;;10.70;34.50
11692;BME280;33659;42.672;23.354;2023-03-12T12:47:39;93935.16;;;10.84;33.70
11692;BME280;33659;42.672;23.354;2023-03-12T12:50:13;93929.44;;;11.14;33.58
11692;BME280;33659;42.672;23.354;2023-03-12T12:52:41;93915.63;;;11.49;32.62
11692;BME280;33659;42.672;23.354;2023-03-12T12:55:12;93919.00;;;11.69;32.41
11692;BME280;33659;42.672;23.354;2023-03-12T12:57:43;93923.19;;;11.73;32.09
11692;BME280;33659;42.672;23.354;2023-03-12T13:00:22;93920.13;;;11.87;31.64
11692;BME280;33659;42.672;23.354;2023-03-12T13:02:54;93921.69;;;11.72;32.12
11692;BME280;33659;42.672;23.354;2023-03-12T13:05:26;93929.81;;;11.32;32.59
11692;BME280;33659;42.672;23.354;2023-03-12T13:07:53;93945.41;;;11.09;32.69
11692;BME280;33659;42.672;23.354;2023-03-12T13:10:40;93937.03;;;11.19;32.47
11692;BME280;33659;42.672;23.354;2023-03-12T13:13:11;93928.19;;;11.43;32.74